Time;durP1;ratioP1;P1;durP2;ratioP2;P2;SDS_P1;SDS_P2;PMS_P1;PMS_P2;Temp;Humidity;BMP_temperature;BMP_pressure;BME280_temperature;BME280_humidity;BME280_pressure;Samples;Min_cycle;Max_cycle;Signal;HPM_P1;HPM_P2
2023/12/13 00:01:38;;;;;;;12.38;5.47;;;6.30;99.90;;;;;;5041057;28;20041;-66
2023/12/13 00:04:04;;;;;;;10.70;5.70;;;6.30;99.90;;;;;;5042718;28;20029;-66
2023/12/13 00:06:30;;;;;;;10.85;5.93;;;6.30;99.90;;;;;;5034361;28;20029;-66
2023/12/13 00:08:56;;;;;;;12.20;5.78;;;6.30;99.90;;;;;;5031757;28;20514;-66
2023/12/13 00:11:22;;;;;;;13.82;6.13;;;6.40;99.90;;;;;;5042090;28;20420;-65
2023/12/13 00:13:48;;;;;;;11.82;5.53;;;6.40;99.90;;;;;;5040024;28;20072;-65
2023/12/13 00:16:14;;;;;;;9.43;6.15;;;6.40;99.90;;;;;;5041461;28;20656;-66
2023/12/13 00:18:41;;;;;;;8.90;5.90;;;6.40;99.90;;;;;;5039623;28;20045;-66
2023/12/13 00:21:08;;;;;;;13.02;5.88;;;6.40;99.90;;;;;;5043927;28;20031;-66
2023/12/13 00:23:34;;;;;;;9.23;5.07;;;6.40;99.90;;;;;;5043448;28;20483;-65
2023/12/13 00:26:00;;;;;;;9.88;5.65;;;6.40;99.90;;;;;;5037301;28;20037;-65
2023/12/13 00:28:26;;;;;;;9.93;4.65;;;6.40;99.90;;;;;;5043383;28;20040;-65
2023/12/13 00:30:52;;;;;;;9.68;5.55;;;6.40;99.90;;;;;;5035610;28;20075;-65
2023/12/13 00:33:18;;;;;;;9.35;5.05;;;6.50;99.90;;;;;;5039131;28;20127;-65
2023/12/13 00:35:43;;;;;;;10.40;5.28;;;6.50;99.90;;;;;;5041024;28;20033;-65
2023/12/13 00:38:09;;;;;;;11.30;5.63;;;6.50;99.90;;;;;;5035808;28;20039;-65
2023/12/13 00:40:35;;;;;;;8.45;5.00;;;6.50;99.90;;;;;;5042940;28;20144;-65
2023/12/13 00:43:01;;;;;;;10.98;6.05;;;6.40;99.90;;;;;;5035790;28;20469;-66
2023/12/13 00:45:28;;;;;;;10.10;5.10;;;6.30;99.90;;;;;;5039314;28;20051;-65
2023/12/13 00:47:54;;;;;;;9.68;4.25;;;6.40;99.90;;;;;;5038506;28;20055;-65
2023/12/13 00:50:20;;;;;;;12.75;6.30;;;6.40;99.90;;;;;;5035004;28;20098;-65
2023/12/13 00:52:45;;;;;;;8.32;4.85;;;6.40;99.90;;;;;;5038297;28;20025;-65
2023/12/13 00:55:11;;;;;;;13.77;5.70;;;6.50;99.90;;;;;;5041510;28;20057;-65
2023/12/13 00:57:38;;;;;;;9.25;4.90;;;6.50;99.90;;;;;;5043273;28;20036;-65
2023/12/13 01:00:05;;;;;;;9.65;5.65;;;6.50;99.90;;;;;;5040421;28;20397;-65
2023/12/13 01:02:31;;;;;;;10.65;5.95;;;6.50;99.90;;;;;;5040648;28;20105;-65
2023/12/13 01:04:57;;;;;;;10.45;5.75;;;6.50;99.90;;;;;;5040692;28;20227;-65
2023/12/13 01:07:23;;;;;;;9.82;5.57;;;6.50;99.90;;;;;;5038264;28;20056;-65
2023/12/13 01:09:49;;;;;;;13.57;5.57;;;6.30;99.90;;;;;;5039081;28;20036;-65
2023/12/13 01:12:16;;;;;;;10.10;6.45;;;6.40;99.90;;;;;;5043483;28;20021;-64
2023/12/13 01:14:41;;;;;;;10.73;6.60;;;6.50;99.90;;;;;;5040102;28;20124;-65
2023/12/13 01:17:08;;;;;;;11.93;6.00;;;6.40;99.90;;;;;;5042329;28;20148;-65
2023/12/13 01:19:33;;;;;;;8.40;5.70;;;6.40;99.90;;;;;;5035003;28;20025;-65
2023/12/13 01:21:59;;;;;;;12.02;6.10;;;6.40;99.90;;;;;;5040367;28;20538;-65
2023/12/13 01:24:25;;;;;;;13.02;6.15;;;6.50;99.90;;;;;;5044269;28;20048;-65
2023/12/13 01:26:51;;;;;;;13.57;6.13;;;6.50;99.90;;;;;;5041090;28;20048;-65
2023/12/13 01:29:17;;;;;;;12.82;6.50;;;6.50;99.90;;;;;;5043957;28;20060;-65
2023/12/13 01:31:42;;;;;;;11.90;5.93;;;6.40;99.90;;;;;;5038381;28;20065;-64
2023/12/13 01:34:08;;;;;;;10.88;5.93;;;6.40;99.90;;;;;;5038354;28;20507;-64
2023/12/13 01:36:41;;;;;;;12.20;6.15;;;6.30;99.90;;;;;;5028889;28;20040;-65
2023/12/13 01:39:07;;;;;;;11.63;6.25;;;6.30;99.90;;;;;;5034805;28;20033;-64
2023/12/13 01:41:33;;;;;;;10.52;6.53;;;6.30;99.90;;;;;;5039280;28;20045;-64
2023/12/13 01:43:59;;;;;;;14.73;6.45;;;6.20;99.90;;;;;;5037419;28;20623;-65
2023/12/13 01:46:25;;;;;;;14.55;6.35;;;6.30;99.90;;;;;;5042757;28;20037;-65
2023/12/13 01:48:51;;;;;;;14.27;6.50;;;6.20;99.90;;;;;;5037922;28;20036;-64
2023/12/13 01:51:18;;;;;;;14.60;6.47;;;6.20;99.90;;;;;;5043224;28;20779;-64
2023/12/13 01:53:44;;;;;;;12.20;7.13;;;6.30;99.90;;;;;;5042901;28;20025;-64
2023/12/13 01:56:11;;;;;;;16.13;7.03;;;6.30;99.90;;;;;;5040725;28;20039;-64
2023/12/13 01:58:38;;;;;;;15.05;6.50;;;6.30;99.90;;;;;;5037583;28;20029;-64
2023/12/13 02:01:07;;;;;;;16.48;7.32;;;6.30;99.90;;;;;;5040907;28;20032;-64
2023/12/13 02:03:36;;;;;;;12.20;6.57;;;6.20;99.90;;;;;;5043904;28;20040;-64
2023/12/13 02:06:05;;;;;;;12.45;6.78;;;6.20;99.90;;;;;;5047592;28;20024;-64
2023/12/13 02:08:32;;;;;;;13.15;6.97;;;6.30;99.90;;;;;;5040662;28;20029;-64
2023/12/13 02:10:59;;;;;;;14.27;6.82;;;6.30;99.90;;;;;;5046241;28;20037;-64
2023/12/13 02:13:25;;;;;;;14.23;6.70;;;6.30;99.90;;;;;;5039083;28;20116;-65
2023/12/13 02:15:51;;;;;;;13.45;7.85;;;6.40;99.90;;;;;;5040525;28;20182;-65
2023/12/13 02:18:17;;;;;;;15.30;7.63;;;6.40;99.90;;;;;;5045969;28;20051;-65
2023/12/13 02:20:43;;;;;;;12.60;8.00;;;6.40;99.90;;;;;;5041983;28;20504;-65
2023/12/13 02:23:09;;;;;;;14.15;7.03;;;6.40;99.90;;;;;;5039296;28;20528;-65
2023/12/13 02:26:01;;;;;;;10.77;6.85;;;6.40;99.90;;;;;;5046914;28;20033;-65
2023/12/13 02:28:28;;;;;;;17.02;7.88;;;6.30;99.90;;;;;;5037651;28;20040;-65
2023/12/13 02:30:58;;;;;;;15.98;7.75;;;6.40;99.90;;;;;;5046661;28;20574;-65
2023/12/13 02:33:28;;;;;;;14.15;7.75;;;6.30;99.90;;;;;;5044685;28;20047;-65
2023/12/13 02:35:59;;;;;;;14.57;7.85;;;6.20;99.90;;;;;;5045684;28;20029;-65
2023/12/13 02:38:25;;;;;;;19.33;8.23;;;6.20;99.90;;;;;;5041360;28;20033;-65
2023/12/13 02:40:52;;;;;;;20.50;8.25;;;6.10;99.90;;;;;;5046520;28;20413;-65
2023/12/13 02:43:19;;;;;;;16.67;9.00;;;6.00;99.90;;;;;;5044709;28;20032;-64
2023/12/13 02:45:45;;;;;;;16.90;7.65;;;5.90;99.90;;;;;;5037455;28;20068;-65
2023/12/13 02:48:10;;;;;;;20.40;9.25;;;5.90;99.90;;;;;;5035679;28;20065;-65
2023/12/13 02:50:38;;;;;;;16.05;7.78;;;5.90;99.90;;;;;;5039976;28;20068;-65
2023/12/13 02:53:05;;;;;;;18.02;8.65;;;6.10;99.90;;;;;;5036161;28;20521;-65
2023/12/13 02:55:31;;;;;;;16.77;8.15;;;6.10;99.90;;;;;;5046393;28;20405;-65
2023/12/13 02:57:56;;;;;;;19.85;8.18;;;6.00;99.90;;;;;;5039015;28;20033;-65
2023/12/13 03:00:22;;;;;;;15.68;8.23;;;6.10;99.90;;;;;;5046398;28;20684;-65
2023/12/13 03:02:48;;;;;;;17.25;9.15;;;6.20;99.90;;;;;;5044629;28;20028;-65
2023/12/13 03:05:14;;;;;;;21.25;10.10;;;6.20;99.90;;;;;;5031608;28;20082;-64
2023/12/13 03:07:40;;;;;;;21.13;10.27;;;6.10;99.90;;;;;;5046206;28;20460;-65
2023/12/13 03:10:06;;;;;;;18.92;9.60;;;6.10;99.90;;;;;;5046039;28;20508;-65
2023/12/13 03:12:32;;;;;;;14.57;8.30;;;6.10;99.90;;;;;;5045614;28;20098;-65
2023/12/13 03:14:58;;;;;;;18.00;9.30;;;6.20;99.90;;;;;;5037221;28;20037;-65
2023/12/13 03:17:24;;;;;;;21.75;8.63;;;6.20;99.90;;;;;;5045727;28;20501;-65
2023/12/13 03:19:50;;;;;;;21.08;9.45;;;6.30;99.90;;;;;;5044434;28;20047;-65
2023/12/13 03:22:15;;;;;;;16.67;9.05;;;6.30;99.90;;;;;;5045240;28;20032;-65
2023/12/13 03:24:41;;;;;;;19.98;9.23;;;6.40;99.90;;;;;;5045824;28;20040;-65
2023/12/13 03:27:07;;;;;;;21.75;10.55;;;6.50;99.90;;;;;;5039858;28;20045;-65
2023/12/13 03:29:33;;;;;;;18.00;9.77;;;6.50;99.90;;;;;;5046175;28;20039;-65
2023/12/13 03:31:59;;;;;;;20.58;8.82;;;6.50;99.90;;;;;;5045765;28;20024;-64
2023/12/13 03:34:25;;;;;;;18.73;8.10;;;6.50;99.90;;;;;;5039091;28;20401;-65
2023/12/13 03:36:51;;;;;;;18.98;8.85;;;6.50;99.90;;;;;;5045863;28;20400;-65
2023/12/13 03:39:17;;;;;;;18.10;9.43;;;6.70;99.90;;;;;;5045858;28;20132;-65
2023/12/13 03:41:43;;;;;;;18.75;8.45;;;6.60;99.90;;;;;;5038731;28;20489;-65
2023/12/13 03:44:09;;;;;;;18.55;9.00;;;6.50;99.90;;;;;;5043692;28;20033;-64
2023/12/13 03:46:35;;;;;;;13.75;8.23;;;6.50;99.90;;;;;;5040218;28;20029;-64
2023/12/13 03:49:01;;;;;;;19.48;9.25;;;6.50;99.90;;;;;;5044351;28;20579;-64
2023/12/13 03:51:26;;;;;;;17.75;9.40;;;6.50;99.90;;;;;;5043417;28;20032;-64
2023/12/13 03:53:52;;;;;;;17.67;8.43;;;6.50;99.90;;;;;;5033072;28;20136;-65
2023/12/13 03:56:18;;;;;;;16.00;8.52;;;6.60;99.90;;;;;;5042897;28;20031;-65
2023/12/13 03:58:44;;;;;;;17.70;8.40;;;6.60;99.90;;;;;;5032817;28;20087;-65
2023/12/13 04:01:11;;;;;;;19.40;9.48;;;6.50;99.90;;;;;;5038573;28;20108;-65
2023/12/13 04:03:36;;;;;;;17.52;8.98;;;6.50;99.90;;;;;;5044972;28;20147;-64
2023/12/13 04:06:03;;;;;;;17.80;9.10;;;6.40;99.90;;;;;;5044992;28;20163;-65
2023/12/13 04:08:29;;;;;;;15.88;8.52;;;6.40;99.90;;;;;;5043731;28;20060;-64
2023/12/13 04:10:55;;;;;;;16.23;9.32;;;6.40;99.90;;;;;;5045068;28;20083;-64
2023/12/13 04:13:21;;;;;;;16.45;9.30;;;6.20;99.90;;;;;;5045230;28;20119;-64
2023/12/13 04:15:46;;;;;;;19.42;9.18;;;6.20;99.90;;;;;;5043633;28;20090;-65
2023/12/13 04:18:13;;;;;;;18.33;8.85;;;6.20;99.90;;;;;;5044849;28;20033;-65
2023/12/13 04:20:39;;;;;;;17.25;8.45;;;6.30;99.90;;;;;;5044425;28;20037;-65
2023/12/13 04:23:04;;;;;;;17.00;9.13;;;6.30;99.90;;;;;;5044863;28;20043;-64
2023/12/13 04:25:30;;;;;;;15.07;8.80;;;6.40;99.90;;;;;;5041257;28;20041;-64
2023/12/13 04:27:57;;;;;;;17.17;8.02;;;6.50;99.90;;;;;;5041567;28;20068;-64
2023/12/13 04:30:23;;;;;;;14.75;7.75;;;6.70;99.90;;;;;;5036617;28;20817;-64
2023/12/13 04:32:49;;;;;;;14.88;8.30;;;6.70;99.90;;;;;;5040551;28;20040;-64
2023/12/13 04:35:14;;;;;;;15.77;8.95;;;6.60;99.90;;;;;;5035718;28;20045;-64
2023/12/13 04:37:40;;;;;;;16.67;8.65;;;6.50;99.90;;;;;;5039273;28;20575;-64
2023/12/13 04:40:07;;;;;;;16.50;8.95;;;6.40;99.90;;;;;;5036513;28;20071;-64
2023/12/13 04:42:33;;;;;;;19.63;9.43;;;6.30;99.90;;;;;;5038226;28;20108;-64
2023/12/13 04:44:59;;;;;;;14.93;8.35;;;6.30;99.90;;;;;;5044351;28;20043;-64
2023/12/13 04:47:25;;;;;;;17.25;8.80;;;6.40;99.90;;;;;;5032634;28;20041;-64
2023/12/13 04:49:51;;;;;;;18.15;9.13;;;6.30;99.90;;;;;;5040583;28;20033;-64
2023/12/13 04:52:17;;;;;;;16.10;8.85;;;6.30;99.90;;;;;;5044541;28;20669;-64
2023/12/13 04:54:43;;;;;;;18.70;9.02;;;6.40;99.90;;;;;;5044816;28;20037;-64
2023/12/13 04:57:09;;;;;;;18.45;9.52;;;6.50;99.90;;;;;;5036112;28;20068;-64
2023/12/13 04:59:35;;;;;;;15.88;8.80;;;6.50;99.90;;;;;;5037856;28;20057;-64
2023/12/13 05:02:01;;;;;;;17.65;8.45;;;6.60;99.90;;;;;;5043767;28;20033;-65
2023/12/13 05:04:27;;;;;;;16.35;8.95;;;6.60;99.90;;;;;;5039114;28;20044;-65
2023/12/13 05:06:53;;;;;;;17.65;8.88;;;6.70;99.90;;;;;;5037597;28;20029;-65
2023/12/13 05:09:19;;;;;;;17.38;9.00;;;6.70;99.90;;;;;;5042636;28;20555;-65
2023/12/13 05:11:45;;;;;;;17.52;8.88;;;6.80;99.90;;;;;;5044085;28;20037;-64
2023/12/13 05:14:10;;;;;;;15.57;8.23;;;6.70;99.90;;;;;;5042951;28;20037;-64
2023/12/13 05:16:36;;;;;;;21.85;8.77;;;6.70;99.90;;;;;;5044095;28;20040;-64
2023/12/13 05:19:02;;;;;;;14.23;9.02;;;6.60;99.90;;;;;;5035393;28;20030;-64
2023/12/13 05:21:28;;;;;;;18.58;9.25;;;6.70;99.90;;;;;;5036640;28;20507;-64
2023/12/13 05:23:54;;;;;;;20.50;8.38;;;6.70;99.90;;;;;;5036159;28;20036;-64
2023/12/13 05:26:20;;;;;;;14.98;8.30;;;6.60;99.90;;;;;;5036780;28;20028;-64
2023/12/13 05:28:46;;;;;;;15.20;8.43;;;6.60;99.90;;;;;;5041190;28;20112;-64
2023/12/13 05:31:22;;;;;;;17.45;9.18;;;6.60;99.90;;;;;;5034221;28;20037;-64
2023/12/13 05:33:49;;;;;;;17.33;8.27;;;6.50;99.90;;;;;;5038944;28;20108;-64
2023/12/13 05:36:15;;;;;;;18.60;8.52;;;6.50;99.90;;;;;;5039750;28;20057;-64
2023/12/13 05:38:41;;;;;;;15.48;8.30;;;6.30;99.90;;;;;;5038912;28;20142;-64
2023/12/13 05:41:07;;;;;;;15.65;7.63;;;6.40;99.90;;;;;;5046728;28;20444;-64
2023/12/13 05:43:36;;;;;;;19.13;9.25;;;6.40;99.90;;;;;;5040588;28;20033;-64
2023/12/13 05:46:04;;;;;;;15.57;8.05;;;6.40;99.90;;;;;;5047697;28;20034;-64
2023/12/13 05:48:29;;;;;;;17.08;7.70;;;6.40;99.90;;;;;;5044389;28;20037;-64
2023/12/13 05:50:55;;;;;;;13.63;7.35;;;6.50;99.90;;;;;;5044222;28;20033;-64
2023/12/13 05:53:21;;;;;;;11.75;6.93;;;6.60;99.90;;;;;;5034855;28;20450;-64
2023/12/13 05:55:47;;;;;;;12.32;7.68;;;6.70;99.90;;;;;;5040205;28;20048;-64
2023/12/13 05:58:13;;;;;;;12.95;7.85;;;6.80;99.90;;;;;;5046563;28;20028;-64
2023/12/13 06:00:38;;;;;;;13.13;7.45;;;6.80;99.90;;;;;;5038992;28;20033;-64
2023/12/13 06:03:04;;;;;;;17.20;8.57;;;6.90;99.90;;;;;;5040629;28;20496;-64
2023/12/13 06:05:30;;;;;;;12.43;6.65;;;6.90;99.90;;;;;;5046471;28;20033;-64
2023/12/13 06:07:56;;;;;;;12.48;7.05;;;6.90;99.90;;;;;;5044245;28;20037;-64
2023/12/13 06:10:22;;;;;;;13.07;6.95;;;6.90;99.90;;;;;;5039080;28;20123;-64
2023/12/13 06:12:50;;;;;;;13.85;7.55;;;6.90;99.90;;;;;;5044964;28;20061;-64
2023/12/13 06:15:17;;;;;;;11.23;6.30;;;6.90;99.90;;;;;;5047354;28;20040;-65
2023/12/13 06:17:43;;;;;;;12.38;6.63;;;6.90;99.90;;;;;;5036312;28;20037;-64
2023/12/13 06:20:09;;;;;;;13.05;6.93;;;6.90;99.90;;;;;;5043154;28;20040;-64
2023/12/13 06:22:36;;;;;;;10.70;6.30;;;6.90;99.90;;;;;;5036346;28;20148;-64
2023/12/13 06:25:02;;;;;;;12.63;6.75;;;7.00;99.90;;;;;;5047193;28;20030;-64
2023/12/13 06:27:28;;;;;;;12.38;6.72;;;6.90;99.90;;;;;;5035020;28;20448;-64
2023/12/13 06:29:54;;;;;;;11.40;6.95;;;7.00;99.90;;;;;;5041988;28;20035;-64
2023/12/13 06:32:20;;;;;;;12.43;7.50;;;7.10;99.90;;;;;;5045113;28;20024;-64
2023/12/13 06:34:46;;;;;;;13.68;7.20;;;7.10;99.90;;;;;;5037508;28;20037;-64
2023/12/13 06:37:12;;;;;;;10.15;6.10;;;7.20;99.90;;;;;;5033379;28;20030;-64
2023/12/13 06:39:38;;;;;;;12.18;7.07;;;7.20;99.90;;;;;;5046912;28;20039;-65
2023/12/13 06:42:08;;;;;;;10.30;6.32;;;7.30;99.90;;;;;;5043682;28;20033;-64
2023/12/13 06:44:38;;;;;;;12.45;7.13;;;7.20;99.90;;;;;;5046833;28;20033;-64
2023/12/13 06:47:05;;;;;;;12.05;6.78;;;7.20;99.90;;;;;;5040901;28;20030;-64
2023/12/13 06:49:34;;;;;;;12.13;6.78;;;7.20;99.90;;;;;;5036882;28;20171;-65
2023/12/13 06:52:00;;;;;;;8.63;6.20;;;7.10;99.90;;;;;;5042594;28;20075;-65
2023/12/13 06:54:28;;;;;;;11.82;6.85;;;7.10;99.90;;;;;;5044351;28;20029;-64
2023/12/13 06:56:54;;;;;;;12.60;6.50;;;7.10;99.90;;;;;;5028674;28;20494;-65
2023/12/13 06:59:20;;;;;;;15.77;7.60;;;7.10;99.90;;;;;;5045177;28;20033;-65
2023/12/13 07:01:46;;;;;;;13.07;7.70;;;7.10;99.90;;;;;;5044321;28;20036;-65
2023/12/13 07:04:12;;;;;;;10.02;6.35;;;7.20;99.90;;;;;;5045673;28;20025;-65
2023/12/13 07:06:38;;;;;;;10.90;6.68;;;7.30;99.90;;;;;;5046291;28;20474;-65
2023/12/13 07:09:05;;;;;;;11.15;6.13;;;7.30;99.90;;;;;;5044370;28;20032;-65
2023/12/13 07:11:31;;;;;;;14.20;6.93;;;7.30;99.90;;;;;;5042125;28;20041;-64
2023/12/13 07:13:57;;;;;;;9.82;6.68;;;7.40;99.90;;;;;;5046483;28;20560;-65
2023/12/13 07:16:22;;;;;;;12.35;6.97;;;7.40;99.90;;;;;;5042752;28;20043;-65
2023/12/13 07:18:48;;;;;;;10.23;6.72;;;7.40;99.90;;;;;;5040958;28;20125;-65
2023/12/13 07:21:14;;;;;;;11.70;6.35;;;7.50;99.90;;;;;;5026653;28;20144;-65
2023/12/13 07:23:40;;;;;;;12.70;7.13;;;7.50;99.90;;;;;;5037112;28;20087;-65
2023/12/13 07:26:06;;;;;;;14.43;6.95;;;7.50;99.90;;;;;;5043548;28;20075;-65
2023/12/13 07:28:33;;;;;;;12.15;7.28;;;7.50;99.90;;;;;;5037047;28;20036;-64
2023/12/13 07:31:04;;;;;;;12.02;6.90;;;7.50;99.90;;;;;;5040063;28;20043;-65
2023/12/13 07:33:34;;;;;;;14.32;7.95;;;7.60;99.90;;;;;;5045853;28;20033;-65
2023/12/13 07:36:00;;;;;;;11.90;6.65;;;7.60;99.90;;;;;;5044509;28;20048;-65
2023/12/13 07:38:26;;;;;;;13.75;6.97;;;7.60;99.90;;;;;;5045624;28;20037;-65
2023/12/13 07:40:53;;;;;;;12.93;6.70;;;7.60;99.90;;;;;;5045278;28;20410;-65
2023/12/13 07:43:19;;;;;;;12.50;7.85;;;7.70;99.90;;;;;;5045877;28;20036;-65
2023/12/13 07:45:51;;;;;;;11.82;7.20;;;7.70;99.90;;;;;;5045643;28;20028;-65
2023/12/13 07:48:19;;;;;;;12.32;7.45;;;7.60;99.90;;;;;;5045153;28;20025;-65
2023/12/13 07:50:45;;;;;;;10.68;6.70;;;7.60;99.90;;;;;;5039305;28;20086;-65
2023/12/13 07:53:10;;;;;;;10.07;6.70;;;7.70;99.90;;;;;;5037239;28;20041;-65
2023/12/13 07:55:36;;;;;;;11.18;7.10;;;7.60;99.90;;;;;;5045659;28;20033;-65
2023/12/13 07:58:02;;;;;;;10.63;6.50;;;7.60;99.90;;;;;;5045866;28;20037;-65
2023/12/13 08:00:29;;;;;;;13.23;7.10;;;7.70;99.90;;;;;;5043603;28;20086;-65
2023/12/13 08:02:55;;;;;;;11.75;7.13;;;7.70;99.90;;;;;;5043694;28;20032;-65
2023/12/13 08:05:21;;;;;;;12.95;7.43;;;7.70;99.90;;;;;;5045330;28;20551;-65
2023/12/13 08:07:47;;;;;;;12.68;7.20;;;7.70;99.90;;;;;;5044135;28;20029;-64
2023/12/13 08:10:13;;;;;;;14.73;7.68;;;7.70;99.90;;;;;;5041074;28;20122;-65
2023/12/13 08:12:44;;;;;;;9.90;6.43;;;7.70;99.90;;;;;;5042618;28;20083;-64
2023/12/13 08:15:10;;;;;;;13.32;7.65;;;7.60;99.90;;;;;;5041494;28;20054;-65
2023/12/13 08:17:37;;;;;;;12.93;7.10;;;7.60;99.90;;;;;;5035027;28;20086;-65
2023/12/13 08:20:04;;;;;;;11.43;6.78;;;7.60;99.90;;;;;;5039396;28;20025;-64
2023/12/13 08:22:30;;;;;;;10.80;6.85;;;7.60;99.90;;;;;;5021102;28;20072;-64
2023/12/13 08:24:56;;;;;;;13.02;7.03;;;7.60;99.90;;;;;;5032563;28;20022;-64
2023/12/13 08:27:21;;;;;;;10.73;6.47;;;7.50;99.90;;;;;;5036736;28;20063;-64
2023/12/13 08:29:47;;;;;;;9.27;5.40;;;7.50;99.90;;;;;;5044508;28;20025;-64
2023/12/13 08:32:15;;;;;;;12.07;6.55;;;7.50;99.90;;;;;;5038421;28;20041;-64
2023/12/13 08:34:41;;;;;;;11.63;6.07;;;7.50;99.90;;;;;;5044587;28;20124;-64
2023/12/13 08:37:07;;;;;;;12.07;6.95;;;7.60;99.90;;;;;;5043158;28;20125;-64
2023/12/13 08:39:33;;;;;;;11.18;6.38;;;7.60;99.90;;;;;;5041197;28;20040;-65
2023/12/13 08:41:59;;;;;;;11.75;5.65;;;7.70;99.90;;;;;;5037738;28;20036;-64
2023/12/13 08:44:25;;;;;;;10.32;6.75;;;7.80;99.90;;;;;;5044132;28;20033;-64
2023/12/13 08:46:51;;;;;;;10.57;6.28;;;7.80;99.90;;;;;;5044364;28;20037;-64
2023/12/13 08:49:18;;;;;;;9.32;5.43;;;7.80;99.90;;;;;;5040139;28;20447;-64
2023/12/13 08:51:44;;;;;;;9.27;6.35;;;7.80;99.90;;;;;;5036356;28;20107;-64
2023/12/13 08:54:10;;;;;;;12.27;6.38;;;7.80;99.90;;;;;;5037512;28;20058;-64
2023/12/13 08:56:35;;;;;;;9.68;6.55;;;7.80;99.90;;;;;;5039326;28;20045;-64
2023/12/13 08:59:01;;;;;;;10.23;5.57;;;7.80;99.90;;;;;;5041483;28;20037;-64
2023/12/13 09:01:27;;;;;;;11.63;6.82;;;7.80;99.90;;;;;;5039896;28;20033;-64
2023/12/13 09:03:53;;;;;;;11.65;6.38;;;7.90;99.90;;;;;;5042685;28;20028;-65
2023/12/13 09:06:20;;;;;;;9.57;5.38;;;7.80;99.90;;;;;;5044282;28;20110;-64
2023/12/13 09:08:45;;;;;;;13.27;6.28;;;7.90;99.90;;;;;;5043810;28;20497;-64
2023/12/13 09:11:12;;;;;;;10.95;6.35;;;7.90;99.90;;;;;;5044522;28;20044;-64
2023/12/13 09:13:38;;;;;;;11.20;6.38;;;7.90;99.90;;;;;;5040018;28;20033;-64
2023/12/13 09:16:04;;;;;;;10.90;5.88;;;7.90;99.90;;;;;;5035813;28;20073;-64
2023/12/13 09:18:31;;;;;;;10.38;5.78;;;7.80;99.90;;;;;;5039826;28;20029;-64
2023/12/13 09:20:57;;;;;;;12.52;5.60;;;7.80;99.90;;;;;;5041556;28;20132;-64
2023/12/13 09:23:24;;;;;;;11.00;6.40;;;7.80;99.90;;;;;;5034722;28;20107;-64
2023/12/13 09:25:50;;;;;;;8.70;5.32;;;7.80;99.90;;;;;;5038333;28;20036;-64
2023/12/13 09:28:16;;;;;;;9.63;5.40;;;7.80;99.90;;;;;;5048150;28;20025;-64
2023/12/13 09:30:43;;;;;;;11.65;6.20;;;7.90;99.90;;;;;;5044465;28;20091;-64
2023/12/13 09:33:11;;;;;;;10.38;5.38;;;7.80;99.90;;;;;;5044146;28;20786;-64
2023/12/13 09:35:38;;;;;;;10.20;5.53;;;7.80;99.90;;;;;;5039531;28;20103;-64
2023/12/13 09:38:07;;;;;;;8.93;5.20;;;7.90;99.90;;;;;;5043884;28;20163;-64
2023/12/13 09:40:33;;;;;;;10.32;5.63;;;7.90;99.90;;;;;;5045252;28;20036;-64
2023/12/13 09:43:00;;;;;;;9.15;5.25;;;7.90;99.90;;;;;;5036053;28;20068;-64
2023/12/13 09:45:28;;;;;;;9.50;5.47;;;8.00;99.90;;;;;;5040994;28;20778;-64
2023/12/13 09:47:55;;;;;;;7.82;4.97;;;8.00;99.90;;;;;;5037974;28;20041;-64
2023/12/13 09:50:22;;;;;;;9.07;5.70;;;8.00;99.90;;;;;;5039528;28;20037;-64
2023/12/13 09:52:49;;;;;;;9.52;5.18;;;8.00;99.90;;;;;;5039298;28;20102;-64
2023/12/13 09:55:16;;;;;;;10.70;5.25;;;8.10;99.90;;;;;;5035671;28;20029;-64
2023/12/13 09:57:42;;;;;;;10.65;5.60;;;8.10;99.90;;;;;;5042267;28;20025;-64
2023/12/13 10:00:12;;;;;;;8.32;5.00;;;8.00;99.90;;;;;;5032035;28;20091;-64
2023/12/13 10:02:38;;;;;;;11.07;5.50;;;8.00;99.90;;;;;;5047292;28;20099;-64
2023/12/13 10:05:05;;;;;;;10.43;5.38;;;8.00;99.90;;;;;;5047441;28;20025;-64
2023/12/13 10:07:31;;;;;;;7.13;4.88;;;8.00;99.90;;;;;;5039548;28;20056;-64
2023/12/13 10:09:57;;;;;;;9.85;5.18;;;8.10;99.90;;;;;;5044816;28;20401;-64
2023/12/13 10:12:25;;;;;;;9.52;5.57;;;8.20;99.90;;;;;;5045557;28;20802;-64
2023/12/13 10:14:51;;;;;;;7.93;4.70;;;8.20;99.90;;;;;;5042305;28;20040;-64
2023/12/13 10:17:21;;;;;;;8.52;5.13;;;8.20;99.90;;;;;;5047125;28;20043;-64
2023/12/13 10:19:47;;;;;;;9.00;5.18;;;8.30;99.90;;;;;;5044021;28;20045;-64
2023/12/13 10:22:17;;;;;;;7.43;4.50;;;8.30;99.90;;;;;;5044782;28;20037;-64
2023/12/13 10:24:42;;;;;;;9.65;5.18;;;8.40;99.90;;;;;;5043753;28;20040;-64
2023/12/13 10:27:09;;;;;;;8.20;4.80;;;8.40;99.90;;;;;;5015945;28;20033;-68
2023/12/13 10:29:35;;;;;;;6.72;4.20;;;8.40;99.90;;;;;;5039393;28;20029;-64
2023/12/13 10:32:02;;;;;;;6.72;4.50;;;8.40;99.90;;;;;;5043831;28;20041;-64
2023/12/13 10:34:29;;;;;;;7.55;4.25;;;8.50;99.90;;;;;;5046944;28;20044;-64
2023/12/13 10:36:55;;;;;;;8.45;4.97;;;8.50;99.90;;;;;;5034526;28;20663;-64
2023/12/13 10:39:24;;;;;;;6.00;3.63;;;8.50;99.90;;;;;;5038569;28;20041;-64
2023/12/13 10:41:55;;;;;;;7.28;4.22;;;8.50;99.90;;;;;;5042351;28;20141;-64
2023/12/13 10:44:22;;;;;;;5.93;3.38;;;8.50;99.90;;;;;;5041588;28;20037;-64
2023/12/13 10:46:56;;;;;;;8.55;4.15;;;8.60;99.90;;;;;;5044302;28;20036;-64
2023/12/13 10:49:22;;;;;;;6.47;3.75;;;8.70;99.90;;;;;;5040973;28;20044;-65
2023/12/13 10:51:48;;;;;;;7.38;4.25;;;8.70;99.90;;;;;;5045178;28;20085;-64
2023/12/13 10:54:15;;;;;;;6.63;3.63;;;8.80;99.90;;;;;;5037148;28;20025;-64
2023/12/13 10:56:42;;;;;;;7.50;4.63;;;8.80;99.90;;;;;;5046500;28;20041;-64
2023/12/13 10:59:11;;;;;;;6.45;4.05;;;8.90;99.90;;;;;;5045525;28;20044;-64
2023/12/13 11:01:41;;;;;;;7.05;4.38;;;8.80;99.90;;;;;;5045968;28;20037;-64
2023/12/13 11:04:17;;;;;;;7.20;4.47;;;8.80;99.90;;;;;;5045883;28;20025;-64
2023/12/13 11:06:46;;;;;;;8.48;4.20;;;8.80;99.90;;;;;;5037366;28;20107;-64
2023/12/13 11:09:14;;;;;;;6.88;3.75;;;8.70;99.90;;;;;;5045117;28;20033;-64
2023/12/13 11:11:43;;;;;;;6.82;4.22;;;8.60;99.90;;;;;;5044235;28;20037;-64
2023/12/13 11:14:11;;;;;;;7.43;4.43;;;8.70;99.90;;;;;;5037018;28;20041;-64
2023/12/13 11:16:39;;;;;;;6.50;3.95;;;8.60;99.90;;;;;;5040272;28;20047;-65
2023/12/13 11:19:05;;;;;;;5.72;3.80;;;8.60;99.90;;;;;;5044050;28;20123;-65
2023/12/13 11:21:33;;;;;;;7.97;4.07;;;8.70;99.90;;;;;;5044892;28;20073;-64
2023/12/13 11:24:13;;;;;;;8.48;4.38;;;8.70;99.90;;;;;;5046027;28;20076;-65
2023/12/13 11:26:42;;;;;;;8.52;4.70;;;8.70;99.90;;;;;;5043989;28;20052;-65
2023/12/13 11:29:22;;;;;;;7.68;4.60;;;8.70;99.90;;;;;;5043831;28;20136;-65
2023/12/13 11:31:57;;;;;;;7.70;4.40;;;8.70;99.90;;;;;;5032841;28;20068;-64
2023/12/13 11:34:44;;;;;;;7.68;4.88;;;8.70;99.90;;;;;;5044599;28;20468;-64
2023/12/13 11:37:12;;;;;;;7.45;4.65;;;8.60;99.90;;;;;;5041617;28;20089;-64
2023/12/13 11:39:41;;;;;;;9.48;4.72;;;8.70;99.90;;;;;;5042933;28;20037;-64
2023/12/13 11:42:08;;;;;;;8.07;4.50;;;8.70;99.90;;;;;;5041410;28;20451;-65
2023/12/13 11:44:36;;;;;;;9.32;5.30;;;8.70;99.90;;;;;;5039342;28;20401;-64
2023/12/13 11:47:06;;;;;;;8.82;5.13;;;8.70;99.90;;;;;;5043048;28;20033;-65
2023/12/13 11:49:32;;;;;;;9.90;5.35;;;8.70;99.90;;;;;;5044403;28;20043;-64
2023/12/13 11:52:00;;;;;;;9.52;5.55;;;8.70;99.90;;;;;;5042592;28;20378;-64
2023/12/13 11:54:26;;;;;;;10.68;5.63;;;8.50;99.90;;;;;;5043771;28;20032;-65
2023/12/13 11:56:52;;;;;;;9.98;5.38;;;8.50;99.90;;;;;;5043085;28;20091;-65
2023/12/13 11:59:21;;;;;;;10.10;5.32;;;8.50;99.90;;;;;;5036423;28;20140;-64
2023/12/13 12:01:47;;;;;;;10.82;4.95;;;8.50;99.90;;;;;;5043060;28;20587;-65
2023/12/13 12:04:16;;;;;;;10.88;6.25;;;8.60;99.90;;;;;;5040472;28;20025;-65
2023/12/13 12:06:49;;;;;;;10.05;6.28;;;8.60;99.90;;;;;;5044895;28;20048;-65
2023/12/13 12:09:16;;;;;;;10.38;6.47;;;8.60;99.90;;;;;;5035517;28;20112;-64
2023/12/13 12:11:42;;;;;;;10.27;6.22;;;8.70;99.90;;;;;;5039004;28;20040;-65
2023/12/13 12:14:08;;;;;;;10.93;6.10;;;8.70;99.90;;;;;;5036017;28;20034;-64
2023/12/13 12:16:36;;;;;;;12.77;6.45;;;8.70;99.90;;;;;;5043354;28;20127;-65
2023/12/13 12:19:04;;;;;;;12.52;6.10;;;8.80;99.90;;;;;;5041745;28;20128;-65
2023/12/13 12:21:32;;;;;;;13.27;6.68;;;8.90;99.90;;;;;;5042533;28;20068;-65
2023/12/13 12:23:59;;;;;;;14.02;6.57;;;8.90;99.90;;;;;;5043241;28;20044;-65
2023/12/13 12:26:25;;;;;;;14.32;7.18;;;8.90;99.90;;;;;;5043980;28;20444;-64
2023/12/13 12:28:51;;;;;;;10.70;6.38;;;8.90;99.90;;;;;;5043963;28;20036;-65
2023/12/13 12:31:18;;;;;;;12.55;7.40;;;8.90;99.90;;;;;;5037960;28;20040;-65
2023/12/13 12:33:55;;;;;;;17.95;7.68;;;8.90;99.90;;;;;;5032898;28;20025;-65
2023/12/13 12:36:21;;;;;;;14.38;7.15;;;8.90;99.90;;;;;;5044608;28;20063;-64
2023/12/13 12:38:48;;;;;;;17.52;7.55;;;8.90;99.90;;;;;;5044422;28;20041;-65
2023/12/13 12:41:15;;;;;;;19.70;7.25;;;8.80;99.90;;;;;;5044289;28;20032;-65
2023/12/13 12:43:41;;;;;;;15.10;7.22;;;8.80;99.90;;;;;;5040140;28;20038;-65
2023/12/13 12:46:07;;;;;;;16.10;7.68;;;8.70;99.90;;;;;;5028338;28;20037;-65